Time;durP1;ratioP1;P1;durP2;ratioP2;P2;SDS_P1;SDS_P2;PMS_P1;PMS_P2;Temp;Humidity;BMP_temperature;BMP_pressure;BME280_temperature;BME280_humidity;BME280_pressure;Samples;Min_cycle;Max_cycle;Signal;HPM_P1;HPM_P2
2023/07/15 00:01:49;;;;;;;7.00;6.00;;;;;;;;;;4957002;29;20472;-85
2023/07/15 00:04:28;;;;;;;6.80;6.20;;;;;;;;;;4948404;29;20482;-85
2023/07/15 00:06:57;;;;;;;6.30;5.70;;;;;;;;;;4938298;29;20480;-82
2023/07/15 00:09:29;;;;;;;7.27;6.67;;;;;;;;;;4965481;29;20449;-88
2023/07/15 00:11:57;;;;;;;7.97;7.40;;;;;;;;;;4968305;29;20429;-85
2023/07/15 00:14:51;;;;;;;6.80;6.30;;;;;;;;;;4968421;28;20469;-80
2023/07/15 00:17:18;;;;;;;7.37;6.67;;;;;;;;;;4955783;29;20436;-82
2023/07/15 00:19:48;;;;;;;11.30;6.80;;;;;;;;;;4962145;29;20425;-84
2023/07/15 00:22:22;;;;;;;6.57;6.07;;;;;;;;;;4952272;29;20537;-86
2023/07/15 00:25:05;;;;;;;7.63;6.90;;;;;;;;;;4943713;29;20408;-85
2023/07/15 00:27:38;;;;;;;7.47;6.70;;;;;;;;;;4952232;29;20474;-85
2023/07/15 00:33:20;;;;;;;7.27;6.63;;;;;;;;;;4904484;27;20450;-86
2023/07/15 00:44:14;;;;;;;7.50;6.40;;;;;;;;;;5114918;23;20508;-85
2023/07/15 00:46:44;;;;;;;7.10;6.40;;;;;;;;;;4956405;29;20416;-83
2023/07/15 00:49:16;;;;;;;7.90;7.10;;;;;;;;;;4963858;28;20492;-88
2023/07/15 00:52:08;;;;;;;7.67;6.93;;;;;;;;;;4967201;28;20533;-85
2023/07/15 00:54:37;;;;;;;7.30;6.63;;;;;;;;;;4963450;28;20633;-84
2023/07/15 01:00:23;;;;;;;8.00;6.07;;;;;;;;;;4960023;28;20460;-88
2023/07/15 01:02:56;;;;;;;8.40;7.60;;;;;;;;;;4961991;28;20463;-87
2023/07/15 01:08:17;;;;;;;7.20;6.60;;;;;;;;;;4929947;29;20480;-86
2023/07/15 01:10:52;;;;;;;8.47;6.97;;;;;;;;;;4941414;29;20525;-86
2023/07/15 01:16:53;;;;;;;9.03;8.13;;;;;;;;;;4940115;29;20441;-82
2023/07/15 01:19:22;;;;;;;12.50;7.87;;;;;;;;;;4944893;29;20886;-86
2023/07/15 01:22:05;;;;;;;7.63;7.03;;;;;;;;;;4945838;29;20450;-82
2023/07/15 01:24:34;;;;;;;13.53;7.53;;;;;;;;;;4946773;29;20465;-83
2023/07/15 01:27:09;;;;;;;9.03;8.27;;;;;;;;;;4942125;29;20450;-89
2023/07/15 01:29:43;;;;;;;10.87;8.30;;;;;;;;;;4948395;29;20457;-89
2023/07/15 01:32:19;;;;;;;8.53;7.73;;;;;;;;;;4941065;29;20450;-86
2023/07/15 01:34:49;;;;;;;11.50;9.10;;;;;;;;;;4945366;29;20812;-85
2023/07/15 01:37:20;;;;;;;9.57;8.60;;;;;;;;;;4945150;29;20697;-87
2023/07/15 01:39:49;;;;;;;9.73;8.93;;;;;;;;;;4936691;29;20446;-83
2023/07/15 01:42:24;;;;;;;10.43;8.10;;;;;;;;;;4932509;29;20824;-88
2023/07/15 01:45:00;;;;;;;8.37;7.67;;;;;;;;;;4930314;29;20501;-85
2023/07/15 01:47:31;;;;;;;9.07;8.27;;;;;;;;;;4942616;29;20517;-86
2023/07/15 01:49:59;;;;;;;9.63;8.93;;;;;;;;;;4942608;29;20451;-84
2023/07/15 01:52:26;;;;;;;12.30;9.10;;;;;;;;;;4939805;29;20532;-85
2023/07/15 01:54:55;;;;;;;8.60;7.80;;;;;;;;;;4942947;29;20495;-84
2023/07/15 01:57:23;;;;;;;10.37;8.07;;;;;;;;;;5302619;23;22019;-86
2023/07/15 01:59:58;;;;;;;11.00;9.07;;;;;;;;;;4939422;29;20425;-88
2023/07/15 02:02:48;;;;;;;9.40;8.30;;;;;;;;;;4919182;29;20452;-82
2023/07/15 02:05:16;;;;;;;8.87;8.27;;;;;;;;;;4937445;29;20498;-88
2023/07/15 02:07:50;;;;;;;8.80;8.10;;;;;;;;;;4928793;29;20494;-86
2023/07/15 02:10:21;;;;;;;11.70;9.47;;;;;;;;;;4929905;29;20471;-87
2023/07/15 02:12:51;;;;;;;9.70;9.00;;;;;;;;;;4937500;29;20457;-88
2023/07/15 02:15:19;;;;;;;8.60;8.00;;;;;;;;;;4920781;29;20467;-86
2023/07/15 02:17:46;;;;;;;9.70;8.83;;;;;;;;;;4936164;29;20421;-83
2023/07/15 02:20:17;;;;;;;10.60;8.83;;;;;;;;;;4937636;29;20479;-85
2023/07/15 02:23:05;;;;;;;12.90;9.40;;;;;;;;;;4919045;29;20449;-83
2023/07/15 02:25:35;;;;;;;9.70;9.00;;;;;;;;;;4933495;29;20458;-87
2023/07/15 02:28:10;;;;;;;9.80;9.00;;;;;;;;;;4934747;29;20755;-86
2023/07/15 02:30:43;;;;;;;10.20;9.00;;;;;;;;;;4926489;29;20475;-88
2023/07/15 02:33:30;;;;;;;10.33;9.40;;;;;;;;;;4924363;29;20464;-88
2023/07/15 02:36:06;;;;;;;10.80;9.70;;;;;;;;;;4924177;29;20450;-87
2023/07/15 02:38:37;;;;;;;11.10;10.20;;;;;;;;;;4926407;29;20447;-84
2023/07/15 02:41:06;;;;;;;11.80;10.47;;;;;;;;;;4935147;29;20439;-86
2023/07/15 02:43:37;;;;;;;11.10;10.20;;;;;;;;;;4941430;29;20479;-88
2023/07/15 02:46:08;;;;;;;10.47;9.27;;;;;;;;;;4939333;29;20432;-87
2023/07/15 02:48:37;;;;;;;10.93;9.93;;;;;;;;;;5050076;23;20538;-84
2023/07/15 02:51:17;;;;;;;10.53;9.73;;;;;;;;;;4950731;29;20462;-84
2023/07/15 02:53:44;;;;;;;11.23;10.43;;;;;;;;;;4945913;29;20729;-83
2023/07/15 02:56:12;;;;;;;12.17;10.97;;;;;;;;;;4934276;29;20529;-84
2023/07/15 02:58:40;;;;;;;10.43;9.53;;;;;;;;;;4944739;29;21195;-84
2023/07/15 03:01:09;;;;;;;11.67;10.67;;;;;;;;;;4941092;29;20438;-87
2023/07/15 03:03:46;;;;;;;11.80;10.90;;;;;;;;;;4939343;29;20504;-82
2023/07/15 03:06:13;;;;;;;11.67;10.77;;;;;;;;;;4932042;29;20522;-85
2023/07/15 03:08:44;;;;;;;11.80;10.60;;;;;;;;;;4943081;29;20521;-83
2023/07/15 03:11:12;;;;;;;12.60;11.23;;;;;;;;;;4932771;29;20477;-82
2023/07/15 03:13:41;;;;;;;12.00;11.00;;;;;;;;;;4944187;29;20461;-90
2023/07/15 03:16:10;;;;;;;12.70;11.53;;;;;;;;;;4928756;29;20447;-84
2023/07/15 03:18:42;;;;;;;11.33;10.43;;;;;;;;;;4934316;29;20454;-82
2023/07/15 03:21:09;;;;;;;12.60;11.50;;;;;;;;;;4933797;29;20462;-80
2023/07/15 03:23:37;;;;;;;10.93;10.07;;;;;;;;;;4941716;29;20560;-83
2023/07/15 03:26:04;;;;;;;13.10;11.50;;;;;;;;;;4944929;29;20471;-84
2023/07/15 03:28:39;;;;;;;12.43;11.50;;;;;;;;;;4944818;29;20446;-83
2023/07/15 03:31:06;;;;;;;12.77;11.57;;;;;;;;;;4938667;29;20454;-87
2023/07/15 03:33:37;;;;;;;12.10;11.10;;;;;;;;;;4932397;29;20438;-83
2023/07/15 03:36:05;;;;;;;12.23;11.07;;;;;;;;;;4944128;29;20494;-80
2023/07/15 03:38:33;;;;;;;12.97;11.60;;;;;;;;;;4939705;29;20458;-83
2023/07/15 03:41:00;;;;;;;11.97;10.97;;;;;;;;;;4945934;29;20450;-79
2023/07/15 03:43:28;;;;;;;11.90;10.90;;;;;;;;;;4936088;29;20488;-83
2023/07/15 03:45:57;;;;;;;11.37;10.40;;;;;;;;;;4936608;29;20457;-80
2023/07/15 03:48:25;;;;;;;10.90;9.90;;;;;;;;;;4940880;29;20735;-81
2023/07/15 03:50:53;;;;;;;12.40;11.20;;;;;;;;;;4948375;29;20462;-82
2023/07/15 03:53:20;;;;;;;12.77;11.77;;;;;;;;;;4957638;29;20460;-83
2023/07/15 03:55:48;;;;;;;11.70;10.70;;;;;;;;;;4941644;29;20451;-85
2023/07/15 03:58:17;;;;;;;11.70;10.80;;;;;;;;;;4930557;29;20494;-81
2023/07/15 04:00:45;;;;;;;14.10;11.83;;;;;;;;;;4937041;29;20440;-84
2023/07/15 04:03:18;;;;;;;12.83;11.40;;;;;;;;;;4934858;29;20495;-82
2023/07/15 04:05:48;;;;;;;12.07;11.07;;;;;;;;;;4935459;29;20895;-84
2023/07/15 04:08:21;;;;;;;11.50;10.50;;;;;;;;;;4943259;29;20423;-85
2023/07/15 04:10:51;;;;;;;12.93;11.77;;;;;;;;;;4943222;29;20606;-82
2023/07/15 04:13:20;;;;;;;13.30;10.40;;;;;;;;;;4944092;29;20454;-82
2023/07/15 04:15:47;;;;;;;12.43;11.30;;;;;;;;;;4927482;29;20692;-84
2023/07/15 04:18:16;;;;;;;13.30;12.17;;;;;;;;;;4938321;29;20668;-81
2023/07/15 04:20:44;;;;;;;13.50;11.07;;;;;;;;;;4932941;29;20469;-85
2023/07/15 04:23:12;;;;;;;12.87;11.67;;;;;;;;;;4935182;29;20618;-85
2023/07/15 04:25:43;;;;;;;13.17;10.83;;;;;;;;;;4932194;29;20643;-87
2023/07/15 04:28:10;;;;;;;13.80;12.70;;;;;;;;;;4926675;29;20500;-81
2023/07/15 04:30:38;;;;;;;12.33;11.30;;;;;;;;;;4932213;29;20536;-85
2023/07/15 04:33:05;;;;;;;12.30;11.10;;;;;;;;;;4931108;29;20522;-80
2023/07/15 04:35:35;;;;;;;12.03;11.03;;;;;;;;;;4934452;29;20492;-90
2023/07/15 04:38:09;;;;;;;14.37;12.20;;;;;;;;;;4932818;29;20542;-89
2023/07/15 04:40:39;;;;;;;12.60;11.30;;;;;;;;;;4940076;29;20424;-85
2023/07/15 04:43:07;;;;;;;13.03;11.17;;;;;;;;;;4944804;28;20773;-86
2023/07/15 04:46:07;;;;;;;13.33;10.17;;;;;;;;;;4936813;29;20765;-83
2023/07/15 04:48:41;;;;;;;12.13;11.13;;;;;;;;;;4927770;28;20471;-88
2023/07/15 04:51:11;;;;;;;12.00;10.80;;;;;;;;;;4942381;29;20473;-87
2023/07/15 04:53:43;;;;;;;12.60;11.20;;;;;;;;;;4931074;29;20426;-86
2023/07/15 04:56:11;;;;;;;11.87;10.77;;;;;;;;;;4942952;29;20810;-86
2023/07/15 04:58:39;;;;;;;12.40;10.83;;;;;;;;;;4928708;29;20775;-82
2023/07/15 05:01:09;;;;;;;14.93;11.67;;;;;;;;;;4936040;29;20425;-89
2023/07/15 05:03:36;;;;;;;12.30;10.97;;;;;;;;;;4931391;29;20605;-83
2023/07/15 05:06:04;;;;;;;11.77;10.53;;;;;;;;;;4930681;29;20455;-86
2023/07/15 05:08:32;;;;;;;11.70;10.70;;;;;;;;;;4936178;29;20499;-88
2023/07/15 05:11:00;;;;;;;14.50;10.60;;;;;;;;;;4928624;29;20433;-87
2023/07/15 05:13:29;;;;;;;11.20;10.17;;;;;;;;;;4931084;29;20429;-87
2023/07/15 05:15:56;;;;;;;10.83;10.00;;;;;;;;;;4932622;28;20477;-82
2023/07/15 05:18:23;;;;;;;10.73;9.80;;;;;;;;;;4941985;29;20458;-88
2023/07/15 05:20:51;;;;;;;11.33;10.33;;;;;;;;;;4923567;29;20451;-84
2023/07/15 05:23:22;;;;;;;11.53;9.40;;;;;;;;;;4934887;29;20470;-87
2023/07/15 05:25:52;;;;;;;13.57;10.73;;;;;;;;;;4929581;29;20418;-84
2023/07/15 05:28:19;;;;;;;10.10;9.23;;;;;;;;;;4944781;29;20500;-85
2023/07/15 05:30:47;;;;;;;13.47;10.47;;;;;;;;;;4937637;29;20441;-86
2023/07/15 05:33:14;;;;;;;11.17;9.53;;;;;;;;;;4942843;29;20458;-84
2023/07/15 05:35:41;;;;;;;9.47;8.77;;;;;;;;;;4946488;29;20768;-86
2023/07/15 05:38:15;;;;;;;10.20;9.30;;;;;;;;;;4939848;29;20438;-87
2023/07/15 05:40:43;;;;;;;9.27;8.37;;;;;;;;;;4945680;29;20530;-84
2023/07/15 05:43:11;;;;;;;9.87;9.00;;;;;;;;;;4937436;29;20693;-82
2023/07/15 05:45:38;;;;;;;9.33;8.53;;;;;;;;;;4942895;29;20758;-85
2023/07/15 05:48:06;;;;;;;10.10;9.10;;;;;;;;;;4941946;29;20909;-82
2023/07/15 05:50:37;;;;;;;8.97;8.17;;;;;;;;;;4943043;29;20478;-86
2023/07/15 05:53:05;;;;;;;9.87;8.90;;;;;;;;;;4946140;28;20418;-85
2023/07/15 05:55:33;;;;;;;9.40;8.70;;;;;;;;;;4935999;29;20481;-81
2023/07/15 05:58:01;;;;;;;9.63;8.70;;;;;;;;;;4952407;29;20433;-82
2023/07/15 06:00:29;;;;;;;8.97;8.27;;;;;;;;;;4961776;29;20448;-82
2023/07/15 06:02:56;;;;;;;9.03;8.23;;;;;;;;;;4944939;29;20450;-83
2023/07/15 06:05:24;;;;;;;9.10;8.20;;;;;;;;;;4945625;29;20460;-82
2023/07/15 06:07:53;;;;;;;8.90;8.00;;;;;;;;;;4940278;29;20490;-86
2023/07/15 06:10:21;;;;;;;8.33;7.63;;;;;;;;;;4939395;29;20421;-85
2023/07/15 06:12:50;;;;;;;8.07;7.20;;;;;;;;;;4943473;29;20417;-87
2023/07/15 06:15:20;;;;;;;7.67;7.13;;;;;;;;;;4935537;29;20497;-83
2023/07/15 06:17:48;;;;;;;10.03;7.40;;;;;;;;;;4945112;29;20455;-83
2023/07/15 06:20:23;;;;;;;7.53;6.93;;;;;;;;;;4937354;29;20444;-85
2023/07/15 06:22:55;;;;;;;7.90;6.60;;;;;;;;;;4945465;29;20498;-82
2023/07/15 06:25:23;;;;;;;8.43;7.67;;;;;;;;;;4940814;29;20649;-87
2023/07/15 06:27:53;;;;;;;9.03;6.80;;;;;;;;;;4931627;29;20432;-83
2023/07/15 06:30:28;;;;;;;7.43;6.93;;;;;;;;;;4942333;29;20421;-87
2023/07/15 06:32:55;;;;;;;9.67;7.07;;;;;;;;;;4950279;29;20420;-84
2023/07/15 06:35:25;;;;;;;7.60;7.00;;;;;;;;;;4933872;29;20772;-85
2023/07/15 06:37:52;;;;;;;11.70;7.60;;;;;;;;;;4933786;29;20442;-81
2023/07/15 06:40:25;;;;;;;7.90;7.27;;;;;;;;;;4942379;29;20421;-86
2023/07/15 06:43:00;;;;;;;7.03;6.33;;;;;;;;;;4945091;29;20515;-87
2023/07/15 06:45:34;;;;;;;11.33;7.40;;;;;;;;;;4942282;29;20498;-82
2023/07/15 06:48:01;;;;;;;9.53;7.07;;;;;;;;;;4942610;29;20837;-89
2023/07/15 06:50:29;;;;;;;6.27;5.77;;;;;;;;;;4940310;29;20608;-84
2023/07/15 06:52:56;;;;;;;7.53;6.73;;;;;;;;;;4943924;29;20468;-85
2023/07/15 06:55:24;;;;;;;7.30;6.60;;;;;;;;;;4941652;29;20470;-85
2023/07/15 06:57:51;;;;;;;6.47;6.07;;;;;;;;;;4943085;29;20424;-87
2023/07/15 07:00:21;;;;;;;7.00;6.33;;;;;;;;;;4926549;29;20473;-81
2023/07/15 07:02:49;;;;;;;7.43;6.10;;;;;;;;;;4940260;29;20853;-83
2023/07/15 07:05:17;;;;;;;6.20;5.70;;;;;;;;;;4953749;28;20785;-85
2023/07/15 07:07:45;;;;;;;6.60;6.10;;;;;;;;;;4934006;28;20918;-85
2023/07/15 07:10:12;;;;;;;6.37;5.87;;;;;;;;;;4939945;29;20492;-89
2023/07/15 07:12:40;;;;;;;9.40;7.07;;;;;;;;;;4933299;29;20735;-83
2023/07/15 07:15:08;;;;;;;9.60;6.00;;;;;;;;;;4935596;29;20755;-88
2023/07/15 07:17:36;;;;;;;6.10;5.60;;;;;;;;;;4930503;29;20510;-80
2023/07/15 07:20:04;;;;;;;6.90;6.20;;;;;;;;;;4933069;29;20443;-84
2023/07/15 07:22:32;;;;;;;7.37;6.57;;;;;;;;;;4939879;29;20489;-84
2023/07/15 07:25:02;;;;;;;7.50;6.27;;;;;;;;;;4950514;29;20734;-86
2023/07/15 07:27:30;;;;;;;7.00;6.07;;;;;;;;;;4931095;29;20519;-84
2023/07/15 07:29:59;;;;;;;5.87;5.47;;;;;;;;;;4938956;29;20969;-83
2023/07/15 07:32:27;;;;;;;5.53;5.00;;;;;;;;;;4936926;29;20446;-86
2023/07/15 07:34:54;;;;;;;5.50;5.10;;;;;;;;;;4947724;29;20719;-85
2023/07/15 07:37:22;;;;;;;6.53;5.93;;;;;;;;;;4941032;29;20717;-85
2023/07/15 07:39:49;;;;;;;5.13;4.83;;;;;;;;;;4937176;29;20442;-87
2023/07/15 07:42:17;;;;;;;6.80;5.00;;;;;;;;;;4930890;29;20453;-83
2023/07/15 07:44:44;;;;;;;5.87;5.23;;;;;;;;;;4929097;29;20734;-85
2023/07/15 07:47:12;;;;;;;6.23;5.17;;;;;;;;;;4937459;29;20639;-87
2023/07/15 07:49:39;;;;;;;5.27;4.80;;;;;;;;;;4946729;29;20468;-88
2023/07/15 07:52:07;;;;;;;6.30;5.70;;;;;;;;;;4946702;28;20537;-86
2023/07/15 07:54:34;;;;;;;5.43;5.07;;;;;;;;;;4949164;29;20549;-85
2023/07/15 07:57:02;;;;;;;6.43;5.20;;;;;;;;;;4939995;28;20454;-87
2023/07/15 07:59:30;;;;;;;5.97;5.33;;;;;;;;;;4953478;29;20450;-83
2023/07/15 08:01:57;;;;;;;5.13;4.83;;;;;;;;;;5022099;23;21518;-84
2023/07/15 08:04:25;;;;;;;6.07;5.10;;;;;;;;;;4946610;29;20481;-84
2023/07/15 08:06:53;;;;;;;9.27;5.10;;;;;;;;;;4948430;29;20455;-86
2023/07/15 08:09:20;;;;;;;4.97;4.60;;;;;;;;;;4949527;29;20466;-85
2023/07/15 08:11:48;;;;;;;6.37;5.97;;;;;;;;;;4936872;29;20453;-87
2023/07/15 08:14:15;;;;;;;6.33;4.70;;;;;;;;;;4955895;29;20496;-84
2023/07/15 08:16:43;;;;;;;5.73;5.30;;;;;;;;;;4948891;28;20585;-85
2023/07/15 08:19:11;;;;;;;4.37;4.07;;;;;;;;;;4942126;29;20442;-87
2023/07/15 08:21:39;;;;;;;5.73;5.33;;;;;;;;;;4936779;29;20545;-84
2023/07/15 08:24:06;;;;;;;5.23;4.93;;;;;;;;;;4946737;29;20488;-82
2023/07/15 08:26:33;;;;;;;5.27;4.87;;;;;;;;;;4939958;29;20523;-84
2023/07/15 08:29:03;;;;;;;5.30;5.00;;;;;;;;;;4943829;29;20447;-85
2023/07/15 08:31:31;;;;;;;5.27;4.83;;;;;;;;;;4936515;29;20444;-88
2023/07/15 08:33:59;;;;;;;4.97;4.63;;;;;;;;;;4956273;29;20445;-84
2023/07/15 08:36:26;;;;;;;4.37;4.07;;;;;;;;;;4950954;28;20442;-86
2023/07/15 08:38:54;;;;;;;4.90;4.50;;;;;;;;;;4954331;29;20490;-85
2023/07/15 08:41:23;;;;;;;8.77;5.03;;;;;;;;;;4951622;29;20637;-83
2023/07/15 08:43:51;;;;;;;4.67;4.47;;;;;;;;;;4950140;29;20612;-85
2023/07/15 08:46:26;;;;;;;7.37;5.00;;;;;;;;;;4944610;29;20519;-85
2023/07/15 08:48:54;;;;;;;5.30;4.87;;;;;;;;;;4938284;29;20851;-84
2023/07/15 08:51:23;;;;;;;4.90;4.60;;;;;;;;;;4948874;29;20631;-85
2023/07/15 08:53:50;;;;;;;5.50;5.13;;;;;;;;;;4939958;29;20502;-86
2023/07/15 08:56:18;;;;;;;5.20;4.80;;;;;;;;;;4945360;29;20438;-85
2023/07/15 08:58:46;;;;;;;5.10;4.80;;;;;;;;;;4944923;29;20476;-86
2023/07/15 09:01:19;;;;;;;5.07;4.77;;;;;;;;;;4936529;29;20439;-86
2023/07/15 09:03:47;;;;;;;5.30;4.97;;;;;;;;;;4953808;28;20461;-82
2023/07/15 09:06:18;;;;;;;5.37;4.97;;;;;;;;;;4949479;29;20497;-82
2023/07/15 09:08:52;;;;;;;5.20;4.90;;;;;;;;;;4940121;29;20503;-85
2023/07/15 09:11:20;;;;;;;5.17;4.87;;;;;;;;;;4953765;29;20438;-84
2023/07/15 09:13:48;;;;;;;5.17;4.77;;;;;;;;;;4945768;29;20462;-82
2023/07/15 09:16:16;;;;;;;5.47;5.00;;;;;;;;;;4931453;29;20455;-86
2023/07/15 09:18:44;;;;;;;5.33;4.87;;;;;;;;;;4937486;29;20451;-84
2023/07/15 09:21:16;;;;;;;5.23;4.83;;;;;;;;;;4927889;29;20490;-83
2023/07/15 09:23:45;;;;;;;4.40;4.20;;;;;;;;;;4942560;29;20522;-85
2023/07/15 09:26:13;;;;;;;5.10;4.70;;;;;;;;;;4960008;28;21037;-83
2023/07/15 09:28:48;;;;;;;4.63;4.33;;;;;;;;;;4932513;29;20458;-86
2023/07/15 09:31:23;;;;;;;4.90;4.60;;;;;;;;;;4934018;29;20450;-84
2023/07/15 09:33:51;;;;;;;5.33;4.93;;;;;;;;;;4932709;29;20486;-83
2023/07/15 09:36:32;;;;;;;4.57;4.17;;;;;;;;;;4941606;29;20505;-84
2023/07/15 09:39:13;;;;;;;5.20;4.80;;;;;;;;;;4936310;29;20544;-84
2023/07/15 09:41:41;;;;;;;4.63;4.13;;;;;;;;;;4935222;29;20939;-87
2023/07/15 09:44:09;;;;;;;4.93;4.50;;;;;;;;;;4940310;29;20455;-85
2023/07/15 09:46:37;;;;;;;5.50;5.00;;;;;;;;;;4932068;29;20474;-85
2023/07/15 09:49:05;;;;;;;5.10;4.70;;;;;;;;;;4935183;29;20457;-83
2023/07/15 09:51:32;;;;;;;4.30;4.10;;;;;;;;;;4939679;29;20454;-86
2023/07/15 09:54:01;;;;;;;4.87;4.47;;;;;;;;;;4941135;29;20837;-83
2023/07/15 09:56:41;;;;;;;5.83;4.90;;;;;;;;;;4929782;29;20455;-84
2023/07/15 09:59:14;;;;;;;4.27;3.97;;;;;;;;;;4932550;29;20486;-84
2023/07/15 10:01:47;;;;;;;5.50;5.07;;;;;;;;;;4934259;29;20523;-86
2023/07/15 10:04:14;;;;;;;4.50;4.20;;;;;;;;;;4941348;29;20453;-84
2023/07/15 10:06:43;;;;;;;5.10;4.60;;;;;;;;;;4937937;28;20620;-86
2023/07/15 10:09:11;;;;;;;5.90;5.40;;;;;;;;;;4933339;29;20458;-84
2023/07/15 10:11:39;;;;;;;4.83;4.53;;;;;;;;;;4933359;29;20849;-84
2023/07/15 10:14:07;;;;;;;5.97;5.13;;;;;;;;;;4943113;29;20450;-88
2023/07/15 10:16:34;;;;;;;4.97;4.57;;;;;;;;;;4946022;29;20517;-87
2023/07/15 10:19:02;;;;;;;5.10;4.77;;;;;;;;;;4940646;29;20450;-85
2023/07/15 10:21:29;;;;;;;6.93;4.73;;;;;;;;;;4938565;29;20461;-85
2023/07/15 10:24:10;;;;;;;6.13;5.20;;;;;;;;;;4932835;29;20457;-84
2023/07/15 10:26:48;;;;;;;4.80;4.33;;;;;;;;;;4939691;29;20482;-86
2023/07/15 10:29:15;;;;;;;5.20;4.90;;;;;;;;;;4942050;29;20449;-86
2023/07/15 10:32:03;;;;;;;6.47;4.40;;;;;;;;;;4942558;28;20529;-86
2023/07/15 10:34:41;;;;;;;4.53;4.30;;;;;;;;;;4935376;29;20455;-85
2023/07/15 10:37:11;;;;;;;4.40;4.00;;;;;;;;;;4935449;29;20443;-84
2023/07/15 10:39:39;;;;;;;4.83;4.33;;;;;;;;;;4946776;29;20555;-86
2023/07/15 10:42:09;;;;;;;4.60;4.30;;;;;;;;;;4932216;29;20455;-86
2023/07/15 10:44:40;;;;;;;4.57;4.27;;;;;;;;;;4935630;29;20472;-84
2023/07/15 10:47:08;;;;;;;5.20;4.80;;;;;;;;;;4927422;29;20653;-84
2023/07/15 10:49:36;;;;;;;5.40;5.00;;;;;;;;;;4938500;29;20472;-82
2023/07/15 10:52:05;;;;;;;4.40;4.20;;;;;;;;;;4935539;29;20513;-83
2023/07/15 10:54:36;;;;;;;4.90;4.43;;;;;;;;;;4926640;29;20847;-84
2023/07/15 10:57:11;;;;;;;5.10;4.80;;;;;;;;;;4928996;29;20683;-83
2023/07/15 10:59:47;;;;;;;4.97;4.63;;;;;;;;;;4938983;29;20476;-85
2023/07/15 11:02:15;;;;;;;6.80;4.20;;;;;;;;;;4936263;29;20521;-86
2023/07/15 11:04:43;;;;;;;4.23;3.93;;;;;;;;;;4937863;29;20488;-83
2023/07/15 11:07:11;;;;;;;4.83;4.43;;;;;;;;;;4929628;29;20451;-87
2023/07/15 11:09:39;;;;;;;4.20;3.60;;;;;;;;;;4940440;29;20697;-85
2023/07/15 11:12:07;;;;;;;4.87;4.53;;;;;;;;;;4941269;29;20645;-83
2023/07/15 11:14:38;;;;;;;4.47;4.03;;;;;;;;;;4952388;29;20429;-82
2023/07/15 11:17:05;;;;;;;3.90;3.70;;;;;;;;;;4935365;29;20459;-85
2023/07/15 11:19:38;;;;;;;4.10;3.80;;;;;;;;;;4931295;29;20456;-84
2023/07/15 11:22:10;;;;;;;5.00;4.57;;;;;;;;;;4932232;29;20430;-86
2023/07/15 11:24:37;;;;;;;4.67;4.37;;;;;;;;;;4934601;29;20443;-85
2023/07/15 11:27:05;;;;;;;3.90;3.60;;;;;;;;;;4935255;29;20458;-83
2023/07/15 11:29:32;;;;;;;4.40;4.00;;;;;;;;;;4950633;29;20525;-84
2023/07/15 11:32:01;;;;;;;4.50;4.20;;;;;;;;;;4936757;29;20460;-86
2023/07/15 11:34:29;;;;;;;7.00;3.93;;;;;;;;;;4950577;29;20533;-83
2023/07/15 11:36:57;;;;;;;5.03;4.20;;;;;;;;;;4952453;29;20652;-85
2023/07/15 11:39:25;;;;;;;4.23;3.93;;;;;;;;;;4942379;29;20443;-85
2023/07/15 11:41:53;;;;;;;5.27;4.87;;;;;;;;;;4941462;29;20795;-82
2023/07/15 11:44:21;;;;;;;4.27;3.97;;;;;;;;;;4938278;29;20490;-87
2023/07/15 11:46:49;;;;;;;4.40;4.00;;;;;;;;;;4938476;29;20545;-85
2023/07/15 11:49:20;;;;;;;4.60;4.20;;;;;;;;;;4956104;28;20447;-87
2023/07/15 11:51:48;;;;;;;4.40;4.00;;;;;;;;;;4961493;28;20458;-85
2023/07/15 11:54:16;;;;;;;4.10;3.90;;;;;;;;;;4935956;29;20446;-85
2023/07/15 11:56:45;;;;;;;4.40;4.10;;;;;;;;;;4937110;29;20454;-85
2023/07/15 11:59:26;;;;;;;4.40;4.10;;;;;;;;;;4939838;29;20607;-88
2023/07/15 12:01:56;;;;;;;4.27;3.90;;;;;;;;;;4938368;29;20446;-86
2023/07/15 12:04:27;;;;;;;4.17;3.87;;;;;;;;;;4965841;23;20556;-82
2023/07/15 12:06:54;;;;;;;4.60;4.30;;;;;;;;;;4953568;28;20561;-84
2023/07/15 12:09:22;;;;;;;4.60;4.20;;;;;;;;;;4946958;28;20528;-87
2023/07/15 12:11:50;;;;;;;5.10;4.70;;;;;;;;;;4948882;29;20541;-85
2023/07/15 12:14:18;;;;;;;4.53;4.23;;;;;;;;;;4941863;29;20465;-82
2023/07/15 12:16:47;;;;;;;4.10;3.90;;;;;;;;;;4941881;29;20537;-85
2023/07/15 12:19:18;;;;;;;4.40;4.20;;;;;;;;;;4936989;29;20445;-86
2023/07/15 12:21:46;;;;;;;5.13;4.80;;;;;;;;;;4944526;29;20824;-84
2023/07/15 12:24:13;;;;;;;4.27;3.90;;;;;;;;;;4948885;29;20438;-85
2023/07/15 12:26:41;;;;;;;4.87;4.50;;;;;;;;;;4948961;29;20537;-83
2023/07/15 12:29:09;;;;;;;4.30;4.10;;;;;;;;;;4960824;28;20461;-83
2023/07/15 12:31:36;;;;;;;4.90;4.60;;;;;;;;;;4947183;29;20449;-86
2023/07/15 12:34:04;;;;;;;5.20;4.87;;;;;;;;;;5027013;23;20524;-85
2023/07/15 12:36:31;;;;;;;5.03;4.63;;;;;;;;;;4947960;29;20461;-85
2023/07/15 12:38:58;;;;;;;5.40;5.10;;;;;;;;;;4949855;29;20434;-84
2023/07/15 12:41:26;;;;;;;5.27;4.90;;;;;;;;;;4947708;29;20469;-87
2023/07/15 12:43:53;;;;;;;5.60;5.20;;;;;;;;;;4948371;29;20510;-86
2023/07/15 12:46:21;;;;;;;5.00;4.70;;;;;;;;;;4949760;29;20473;-87
2023/07/15 12:48:51;;;;;;;5.37;4.87;;;;;;;;;;4947133;29;20454;-85
2023/07/15 12:51:18;;;;;;;4.67;4.27;;;;;;;;;;4945202;29;20450;-88
2023/07/15 12:53:46;;;;;;;5.50;4.83;;;;;;;;;;4970655;23;20539;-85
2023/07/15 12:58:55;;;;;;;4.43;4.10;;;;;;;;;;5044050;23;20476;-86
2023/07/15 13:01:31;;;;;;;4.20;3.93;;;;;;;;;;4946414;29;20446;-86
2023/07/15 13:03:58;;;;;;;4.77;4.37;;;;;;;;;;4947429;29;20454;-85
2023/07/15 13:06:26;;;;;;;4.40;4.10;;;;;;;;;;4949108;29;20505;-87
2023/07/15 13:08:57;;;;;;;4.37;4.10;;;;;;;;;;4921858;28;20543;-87
2023/07/15 13:11:26;;;;;;;4.87;4.53;;;33.30;52.60;;;;;;4873429;29;20501;-80
2023/07/15 13:17:23;;;;;;;5.20;4.90;;;34.50;27.20;;;;;;4987615;28;20637;-85
2023/07/15 13:19:54;;;;;;;5.80;4.90;;;34.00;27.20;;;;;;4990484;28;20487;-84
2023/07/15 13:38:38;;;;;;;4.13;3.83;;;31.30;32.20;;;;;;5067424;28;20574;-83
2023/07/15 13:41:07;;;;;;;3.93;3.73;;;32.10;32.40;;;;;;5069257;28;20543;-84
2023/07/15 13:43:34;;;;;;;5.00;3.90;;;32.70;31.60;;;;;;5052089;28;20819;-84
2023/07/15 13:46:01;;;;;;;3.60;3.30;;;33.10;29.20;;;;;;5045866;28;20424;-82
2023/07/15 13:48:29;;;;;;;4.37;4.07;;;33.30;27.90;;;;;;5060504;28;20488;-82
2023/07/15 13:50:56;;;;;;;4.23;3.93;;;33.40;28.30;;;;;;5043820;28;20510;-84
2023/07/15 13:53:23;;;;;;;4.37;4.07;;;33.40;27.40;;;;;;5057560;28;20509;-85
2023/07/15 13:55:59;;;;;;;3.80;3.50;;;33.60;28.70;;;;;;5056107;28;20648;-86
2023/07/15 13:58:27;;;;;;;4.40;3.90;;;33.80;28.20;;;;;;5052328;28;20472;-86
2023/07/15 14:00:56;;;;;;;3.83;3.53;;;33.60;26.40;;;;;;5055111;28;20633;-84
2023/07/15 14:03:26;;;;;;;3.97;3.67;;;33.50;27.50;;;;;;5046955;28;20517;-84
2023/07/15 14:05:54;;;;;;;4.00;3.70;;;33.70;27.40;;;;;;5054548;28;20484;-86
2023/07/15 14:08:23;;;;;;;10.60;4.00;;;33.60;28.30;;;;;;5048198;28;20507;-86
2023/07/15 14:10:51;;;;;;;4.13;3.73;;;33.80;27.00;;;;;;5055047;28;20511;-86
2023/07/15 14:13:18;;;;;;;6.83;3.90;;;33.90;26.40;;;;;;5056807;28;20462;-84
2023/07/15 14:15:48;;;;;;;4.40;4.03;;;33.80;26.70;;;;;;5061487;28;20445;-85
2023/07/15 14:18:17;;;;;;;5.37;3.90;;;33.80;25.90;;;;;;5049064;28;21673;-84
2023/07/15 14:20:44;;;;;;;3.90;3.60;;;33.80;26.50;;;;;;5055893;28;20437;-85
2023/07/15 14:23:11;;;;;;;4.67;4.27;;;33.70;26.90;;;;;;5055815;28;20451;-87
2023/07/15 14:25:38;;;;;;;5.20;4.70;;;33.80;26.10;;;;;;5055591;28;20433;-85
2023/07/15 14:28:06;;;;;;;5.10;4.60;;;33.80;25.80;;;;;;5055042;28;20481;-84
2023/07/15 14:30:40;;;;;;;4.10;3.80;;;33.80;26.40;;;;;;5057743;28;20451;-85
2023/07/15 14:33:12;;;;;;;3.80;3.53;;;33.80;26.20;;;;;;5058076;28;20498;-83
2023/07/15 14:35:41;;;;;;;4.33;3.93;;;33.60;26.40;;;;;;5057114;28;20415;-85
2023/07/15 14:38:11;;;;;;;3.97;3.73;;;33.60;26.60;;;;;;5052789;28;20490;-85
2023/07/15 14:40:46;;;;;;;4.50;4.20;;;33.70;27.30;;;;;;5063829;28;20483;-85
2023/07/15 14:43:17;;;;;;;3.30;3.10;;;33.60;26.60;;;;;;5057259;28;20433;-85
2023/07/15 14:45:47;;;;;;;4.37;3.97;;;33.60;25.80;;;;;;5049757;28;20464;-84
2023/07/15 14:48:17;;;;;;;3.77;3.47;;;33.70;26.10;;;;;;5056505;28;20484;-89
2023/07/15 14:50:57;;;;;;;3.60;3.40;;;33.60;26.30;;;;;;5032653;28;20518;-83
2023/07/15 14:53:34;;;;;;;4.03;3.73;;;33.60;26.50;;;;;;5046060;28;20844;-85
2023/07/15 14:56:04;;;;;;;4.70;3.67;;;33.60;26.80;;;;;;5042560;28;20750;-86
2023/07/15 14:58:43;;;;;;;4.23;3.00;;;33.60;26.80;;;;;;5049337;28;20445;-85
2023/07/15 15:01:11;;;;;;;3.73;3.40;;;33.60;26.10;;;;;;5044601;28;20453;-84
2023/07/15 15:03:38;;;;;;;3.13;2.93;;;33.50;26.70;;;;;;5052089;28;20437;-85
2023/07/15 15:06:05;;;;;;;3.70;3.50;;;33.50;26.50;;;;;;5046170;28;20461;-84
2023/07/15 15:08:34;;;;;;;3.83;3.53;;;33.50;26.80;;;;;;5043231;28;20485;-83
2023/07/15 15:11:00;;;;;;;4.67;4.17;;;33.50;26.50;;;;;;5046995;28;20676;-85
2023/07/15 15:13:30;;;;;;;4.37;4.00;;;33.40;27.10;;;;;;5040101;28;20638;-84
2023/07/15 15:16:04;;;;;;;3.73;3.47;;;33.60;27.60;;;;;;5040868;28;20491;-88
2023/07/15 15:18:31;;;;;;;3.60;3.30;;;33.40;27.90;;;;;;5038225;28;20450;-86
2023/07/15 15:20:59;;;;;;;3.60;3.30;;;33.50;27.40;;;;;;5051142;28;20460;-84